createdAt,value
2023-05-17T07:45:41.609Z,24.16
2023-05-17T07:45:52.920Z,24.17
2023-05-17T07:46:04.528Z,24.23
2023-05-17T07:46:15.880Z,24.25
2023-05-17T07:46:27.486Z,24.28
2023-05-17T07:46:38.870Z,24.29
2023-05-17T07:46:50.491Z,24.30
2023-05-17T07:47:01.864Z,24.32
2023-05-17T07:47:13.553Z,24.33
2023-05-17T07:47:24.891Z,24.33
2023-05-17T07:47:36.543Z,24.36
2023-05-17T07:47:48.119Z,24.36
2023-05-17T07:47:59.928Z,24.38
2023-05-17T07:48:11.336Z,24.39
2023-05-17T07:48:23.082Z,24.40
2023-05-17T07:48:34.585Z,24.41
2023-05-17T07:48:46.344Z,24.42
2023-05-17T07:48:58.801Z,24.43
2023-05-17T07:49:08.383Z,24.44
2023-05-17T07:49:20.235Z,24.44
2023-05-17T07:49:31.693Z,24.45
2023-05-17T07:49:43.296Z,24.46
2023-05-17T07:49:54.647Z,24.47
2023-05-17T07:50:06.248Z,24.49
2023-05-17T07:50:18.412Z,24.49
2023-05-17T07:50:27.619Z,24.49
2023-05-17T07:50:39.223Z,24.51
2023-05-17T07:50:50.580Z,24.51
2023-05-17T07:51:02.159Z,24.52
2023-05-17T07:51:14.394Z,24.53
2023-05-17T07:51:23.604Z,24.53
2023-05-17T07:51:35.204Z,24.54
2023-05-17T07:51:46.526Z,24.55
2023-05-17T07:51:58.286Z,24.55
2023-05-17T07:52:09.622Z,24.56
2023-05-17T07:52:21.244Z,24.57
2023-05-17T07:52:32.600Z,24.57
2023-05-17T07:52:44.193Z,24.58
2023-05-17T07:52:55.524Z,24.59
2023-05-17T07:53:07.097Z,24.59
2023-05-17T07:53:18.448Z,24.60
2023-05-17T07:53:30.043Z,24.60
2023-05-17T07:53:41.368Z,24.61
2023-05-17T07:53:52.946Z,24.62
2023-05-17T07:54:04.271Z,24.62
2023-05-17T07:54:15.834Z,24.63
2023-05-17T07:54:27.185Z,24.63
2023-05-17T07:54:38.756Z,24.63
2023-05-17T07:54:50.076Z,24.65
2023-05-17T07:55:01.669Z,24.64
2023-05-17T07:55:14.772Z,24.65
2023-05-17T07:55:23.763Z,24.63
2023-05-17T07:55:35.101Z,24.65
2023-05-17T07:55:46.717Z,24.66
2023-05-17T07:55:58.036Z,24.66
2023-05-17T07:56:09.608Z,24.67
2023-05-17T07:56:20.937Z,24.67
2023-05-17T07:56:32.532Z,24.68
2023-05-17T07:56:43.860Z,24.68
2023-05-17T07:56:55.487Z,24.69
2023-05-17T07:57:06.847Z,24.69
2023-05-17T07:57:18.433Z,24.70
2023-05-17T07:57:29.768Z,24.70
2023-05-17T07:57:41.353Z,24.70
2023-05-17T07:57:52.703Z,24.71
2023-05-17T07:58:04.293Z,24.72
2023-05-17T07:58:15.633Z,24.71
2023-05-17T07:58:27.245Z,24.73
2023-05-17T07:58:38.573Z,24.72
2023-05-17T07:58:50.183Z,24.73
2023-05-17T07:59:02.397Z,24.73
2023-05-17T07:59:11.603Z,24.73
2023-05-17T07:59:23.181Z,24.74
2023-05-17T07:59:34.534Z,24.74
2023-05-17T07:59:46.141Z,24.75
2023-05-17T07:59:57.455Z,24.75
2023-05-17T08:00:09.121Z,24.75
2023-05-17T08:00:20.435Z,24.75
2023-05-17T08:00:31.997Z,24.76
2023-05-17T08:00:43.349Z,24.76
2023-05-17T08:00:55.107Z,24.77
2023-05-17T08:01:06.381Z,24.77
2023-05-17T08:01:17.972Z,24.77
2023-05-17T08:01:29.317Z,24.77
2023-05-17T08:01:40.908Z,24.78
2023-05-17T08:01:52.233Z,24.77
2023-05-17T08:02:03.810Z,24.78
2023-05-17T08:02:15.170Z,24.79
2023-05-17T08:02:26.780Z,24.79
2023-05-17T08:02:38.124Z,24.79
2023-05-17T08:02:49.767Z,24.80
2023-05-17T08:03:01.133Z,24.79
2023-05-17T08:03:14.471Z,24.80
2023-05-17T08:03:22.902Z,24.80
2023-05-17T08:03:34.256Z,24.80
2023-05-17T08:03:45.866Z,24.81
2023-05-17T08:03:57.233Z,24.81
2023-05-17T08:04:08.827Z,24.82
2023-05-17T08:04:20.194Z,24.81
2023-05-17T08:04:31.878Z,24.82
2023-05-17T08:04:43.211Z,24.82
2023-05-17T08:04:54.956Z,24.82
2023-05-17T08:05:06.299Z,24.83
2023-05-17T08:05:17.877Z,24.82
2023-05-17T08:05:29.641Z,24.84
2023-05-17T08:05:41.405Z,24.83
2023-05-17T08:05:52.795Z,24.84
2023-05-17T08:06:04.509Z,24.84
2023-05-17T08:06:15.887Z,24.84
2023-05-17T08:06:27.501Z,24.85
2023-05-17T08:06:38.815Z,24.85
2023-05-17T08:06:50.395Z,24.86
2023-05-17T08:07:01.735Z,24.86
2023-05-17T08:07:13.329Z,24.86
2023-05-17T08:07:24.650Z,24.86
2023-05-17T08:07:36.257Z,24.87
2023-05-17T08:07:47.578Z,24.87
2023-05-17T08:07:59.181Z,24.88
2023-05-17T08:08:10.530Z,24.88
2023-05-17T08:08:22.118Z,24.88
2023-05-17T08:08:33.428Z,24.88
2023-05-17T08:08:45.038Z,24.89
2023-05-17T08:08:56.389Z,24.89
2023-05-17T08:09:07.964Z,24.89
2023-05-17T08:09:19.293Z,24.90
2023-05-17T08:09:30.877Z,24.90
2023-05-17T08:09:42.221Z,24.89
2023-05-17T08:09:53.818Z,24.90
2023-05-17T08:10:05.149Z,24.90
2023-05-17T08:10:16.767Z,24.90
2023-05-17T08:10:28.084Z,24.90
2023-05-17T08:10:39.679Z,24.91
2023-05-17T08:10:51.033Z,24.91
2023-05-17T08:11:02.648Z,24.92
2023-05-17T08:11:14.914Z,24.91
2023-05-17T08:11:24.137Z,24.91
2023-05-17T08:11:35.740Z,24.92
2023-05-17T08:11:47.104Z,24.93
2023-05-17T08:11:58.677Z,24.93
2023-05-17T08:12:10.011Z,24.93
2023-05-17T08:12:21.600Z,24.93
2023-05-17T08:12:32.920Z,24.93
2023-05-17T08:12:44.504Z,24.94
2023-05-17T08:12:55.843Z,24.94
2023-05-17T08:13:07.456Z,24.94
2023-05-17T08:13:18.804Z,24.94
2023-05-17T08:13:30.392Z,24.94
2023-05-17T08:13:41.727Z,24.94
2023-05-17T08:13:53.340Z,24.95
2023-05-17T08:14:04.662Z,24.95
2023-05-17T08:14:16.258Z,24.95
2023-05-17T08:14:27.629Z,24.95
2023-05-17T08:14:39.218Z,24.95
2023-05-17T08:14:50.559Z,24.97
2023-05-17T08:15:02.130Z,24.96
2023-05-17T08:15:13.500Z,24.97
2023-05-17T08:15:25.064Z,24.96
2023-05-17T08:15:36.442Z,24.97
2023-05-17T08:15:50.047Z,24.97
2023-05-17T08:16:05.338Z,24.96
2023-05-17T08:16:14.002Z,24.96
2023-05-17T08:16:22.018Z,24.96
2023-05-17T08:16:33.379Z,24.97
2023-05-17T08:16:44.990Z,24.97
2023-05-17T08:16:56.331Z,24.98
2023-05-17T08:17:07.919Z,24.98
2023-05-17T08:17:19.239Z,24.98
2023-05-17T08:17:30.911Z,24.98
2023-05-17T08:17:42.321Z,24.99
2023-05-17T08:17:54.108Z,25.00
2023-05-17T08:18:05.581Z,25.00
2023-05-17T08:18:17.378Z,25.00
2023-05-17T08:18:28.879Z,25.00
2023-05-17T08:18:40.612Z,25.01
2023-05-17T08:18:52.202Z,25.01
2023-05-17T08:19:04.090Z,25.01
2023-05-17T08:19:15.584Z,25.01
2023-05-17T08:19:27.446Z,25.02
2023-05-17T08:19:39.010Z,25.02
2023-05-17T08:19:50.679Z,25.02
2023-05-17T08:20:02.106Z,25.03
2023-05-17T08:20:13.737Z,25.03
2023-05-17T08:20:25.090Z,25.03
2023-05-17T08:20:36.685Z,25.03
2023-05-17T08:20:48.023Z,25.03
2023-05-17T08:20:59.615Z,25.04
2023-05-17T08:21:10.943Z,25.04
2023-05-17T08:21:22.526Z,25.04
2023-05-17T08:21:33.873Z,25.04
2023-05-17T08:21:45.479Z,25.05
2023-05-17T08:21:56.803Z,25.05
2023-05-17T08:22:08.556Z,25.05
2023-05-17T08:22:19.888Z,25.05
2023-05-17T08:22:31.499Z,25.06
2023-05-17T08:22:42.836Z,25.06
2023-05-17T08:22:54.438Z,25.06
2023-05-17T08:23:05.771Z,25.06
2023-05-17T08:23:17.365Z,25.07
2023-05-17T08:23:28.704Z,25.07
2023-05-17T08:23:40.292Z,25.07
2023-05-17T08:23:51.632Z,25.07
2023-05-17T08:24:04.191Z,25.07
2023-05-17T08:24:13.435Z,25.08
2023-05-17T08:24:25.014Z,25.08
2023-05-17T08:24:36.355Z,25.08
2023-05-17T08:24:47.964Z,25.08
2023-05-17T08:24:59.304Z,25.09
2023-05-17T08:25:10.883Z,25.08
2023-05-17T08:25:22.220Z,25.08
2023-05-17T08:25:33.864Z,25.09
2023-05-17T08:25:45.170Z,25.09
2023-05-17T08:25:56.758Z,25.09
2023-05-17T08:26:08.103Z,25.10
2023-05-17T08:26:19.677Z,25.10
2023-05-17T08:26:31.051Z,25.10
2023-05-17T08:26:42.633Z,25.10
2023-05-17T08:26:54.025Z,25.11
2023-05-17T08:27:05.657Z,25.10
2023-05-17T08:27:16.975Z,25.10
2023-05-17T08:27:28.562Z,25.11
2023-05-17T08:27:39.886Z,25.12
2023-05-17T08:27:51.477Z,25.11
2023-05-17T08:28:02.898Z,25.11
2023-05-17T08:28:14.513Z,25.12
2023-05-17T08:28:25.854Z,25.12
2023-05-17T08:28:37.445Z,25.13
2023-05-17T08:28:48.765Z,25.13
2023-05-17T08:29:00.352Z,25.13
2023-05-17T08:29:11.695Z,25.13
2023-05-17T08:29:23.281Z,25.13
2023-05-17T08:29:34.638Z,25.13
2023-05-17T08:29:46.249Z,25.14
2023-05-17T08:29:57.620Z,25.14
2023-05-17T08:30:11.927Z,25.14
2023-05-17T08:30:28.981Z,25.12
2023-05-17T08:30:33.140Z,25.12
2023-05-17T08:30:44.468Z,25.13
2023-05-17T08:30:56.017Z,25.14
2023-05-17T08:31:07.483Z,25.14
2023-05-17T08:31:19.034Z,25.15
2023-05-17T08:31:30.368Z,25.15
2023-05-17T08:31:41.976Z,25.15
2023-05-17T08:31:53.338Z,25.15
2023-05-17T08:32:04.943Z,25.16
2023-05-17T08:32:16.284Z,25.16
2023-05-17T08:32:27.908Z,25.16
2023-05-17T08:32:39.284Z,25.16
2023-05-17T08:32:50.937Z,25.17
2023-05-17T08:33:02.366Z,25.17
2023-05-17T08:33:14.041Z,25.17
2023-05-17T08:33:25.461Z,25.17
2023-05-17T08:33:37.973Z,25.18
2023-05-17T08:33:47.356Z,25.18
2023-05-17T08:33:58.964Z,25.18
2023-05-17T08:34:10.411Z,25.18
2023-05-17T08:34:22.125Z,25.18
2023-05-17T08:34:33.447Z,25.18
2023-05-17T08:34:45.069Z,25.18
2023-05-17T08:34:56.423Z,25.19
2023-05-17T08:35:08.008Z,25.19
2023-05-17T08:35:19.326Z,25.19
2023-05-17T08:35:31.074Z,25.19
2023-05-17T08:35:42.461Z,25.19
2023-05-17T08:35:54.037Z,25.20
2023-05-17T08:36:05.358Z,25.20
2023-05-17T08:36:17.067Z,25.20
2023-05-17T08:36:28.448Z,25.20
2023-05-17T08:36:40.111Z,25.21
2023-05-17T08:36:51.442Z,25.22
2023-05-17T08:37:03.061Z,25.22
2023-05-17T08:37:14.394Z,25.22
2023-05-17T08:37:25.974Z,25.22
2023-05-17T08:37:37.316Z,25.22
2023-05-17T08:37:48.905Z,25.23
2023-05-17T08:38:00.284Z,25.23
2023-05-17T08:38:11.848Z,25.23
2023-05-17T08:38:23.194Z,25.23
2023-05-17T08:38:34.799Z,25.23
2023-05-17T08:38:46.125Z,25.23
2023-05-17T08:38:57.713Z,25.23
2023-05-17T08:39:09.088Z,25.24
2023-05-17T08:39:20.656Z,25.24
2023-05-17T08:39:31.980Z,25.24
2023-05-17T08:39:43.591Z,25.25
2023-05-17T08:39:54.981Z,25.24
2023-05-17T08:40:06.591Z,25.26
2023-05-17T08:40:17.968Z,25.25
2023-05-17T08:40:29.802Z,25.25
2023-05-17T08:40:41.711Z,25.26
2023-05-17T08:40:53.047Z,25.26
2023-05-17T08:41:04.659Z,25.26
2023-05-17T08:41:15.954Z,25.26
2023-05-17T08:41:27.565Z,25.27
2023-05-17T08:41:38.894Z,25.26
2023-05-17T08:41:50.490Z,25.27
2023-05-17T08:42:01.819Z,25.27
2023-05-17T08:42:13.441Z,25.27
2023-05-17T08:42:24.771Z,25.27
2023-05-17T08:42:36.351Z,25.28
2023-05-17T08:42:47.714Z,25.28
2023-05-17T08:42:59.274Z,25.28
2023-05-17T08:43:10.602Z,25.28
2023-05-17T08:43:22.177Z,25.28
2023-05-17T08:43:33.509Z,25.28
2023-05-17T08:43:45.088Z,25.29
2023-05-17T08:43:56.429Z,25.29
2023-05-17T08:44:08.016Z,25.29
2023-05-17T08:44:19.355Z,25.29
2023-05-17T08:44:30.959Z,25.30
2023-05-17T08:44:42.284Z,25.29
2023-05-17T08:44:53.880Z,25.29
2023-05-17T08:45:05.216Z,25.30
2023-05-17T08:45:16.799Z,25.30
2023-05-17T08:45:28.314Z,25.30
2023-05-17T08:45:40.034Z,25.30
2023-05-17T08:45:51.347Z,25.31
2023-05-17T08:46:02.901Z,25.30
2023-05-17T08:46:14.257Z,25.31
2023-05-17T08:46:25.832Z,25.31
2023-05-17T08:46:37.157Z,25.31
2023-05-17T08:46:48.757Z,25.31
2023-05-17T08:47:00.147Z,25.30
2023-05-17T08:47:11.690Z,25.31
2023-05-17T08:47:23.021Z,25.32
2023-05-17T08:47:34.698Z,25.32
2023-05-17T08:47:46.109Z,25.31
2023-05-17T08:47:57.789Z,25.32
2023-05-17T08:48:09.180Z,25.31
2023-05-17T08:48:20.950Z,25.32
2023-05-17T08:48:32.415Z,25.32
2023-05-17T08:48:44.027Z,25.33
2023-05-17T08:48:55.358Z,25.33
2023-05-17T08:49:07.108Z,25.33
2023-05-17T08:49:18.514Z,25.34
2023-05-17T08:49:30.122Z,25.34
2023-05-17T08:49:41.456Z,25.33
2023-05-17T08:49:52.998Z,25.34
